Time;durP1;ratioP1;P1;durP2;ratioP2;P2;SDS_P1;SDS_P2;PMS_P1;PMS_P2;Temp;Humidity;BMP_temperature;BMP_pressure;BME280_temperature;BME280_humidity;BME280_pressure;Samples;Min_cycle;Max_cycle;Signal;HPM_P1;HPM_P2
2023/05/09 00:01:52;;;;;;;11.70;10.13;;;;;;;17.23;69.06;97478.69;4894823;28;20149;-80
2023/05/09 00:04:18;;;;;;;10.68;9.60;;;;;;;17.14;69.21;97467.22;4913336;28;20288;-80
2023/05/09 00:06:44;;;;;;;12.52;11.23;;;;;;;17.17;69.19;97474.53;4906296;28;20218;-80
2023/05/09 00:09:09;;;;;;;11.85;10.65;;;;;;;17.22;69.01;97477.09;4914883;28;20560;-80
2023/05/09 00:11:34;;;;;;;11.80;10.60;;;;;;;17.20;69.20;97473.97;4893887;28;20245;-81
2023/05/09 00:14:01;;;;;;;11.77;10.57;;;;;;;17.18;69.14;97470.84;4904261;28;20139;-79
2023/05/09 00:16:27;;;;;;;12.48;11.18;;;;;;;17.32;69.09;97477.00;4899086;28;20199;-80
2023/05/09 00:18:53;;;;;;;13.13;11.40;;;;;;;17.30;69.11;97465.19;4914477;28;20587;-80
2023/05/09 00:21:18;;;;;;;12.23;10.80;;;;;;;17.27;68.98;97458.63;4883184;28;20241;-80
2023/05/09 00:23:43;;;;;;;12.00;10.55;;;;;;;17.24;69.24;97459.22;4884980;28;20168;-80
2023/05/09 00:26:09;;;;;;;12.20;10.10;;;;;;;17.21;69.11;97462.41;4891978;28;20636;-80
2023/05/09 00:28:34;;;;;;;10.52;9.43;;;;;;;17.16;69.28;97460.59;4884041;28;20266;-80
2023/05/09 00:31:00;;;;;;;13.60;10.88;;;;;;;17.13;69.17;97452.47;4903330;28;20171;-80
2023/05/09 00:33:25;;;;;;;10.13;9.00;;;;;;;17.09;68.88;97448.84;4903068;28;20234;-80
2023/05/09 00:35:55;;;;;;;10.98;9.75;;;;;;;17.08;69.00;97452.53;4889547;28;20226;-80
2023/05/09 00:38:22;;;;;;;9.05;8.15;;;;;;;17.09;69.22;97456.75;4882700;28;20324;-80
2023/05/09 00:40:47;;;;;;;8.52;7.72;;;;;;;17.02;68.83;97449.19;4900135;28;20182;-80
2023/05/09 00:43:12;;;;;;;10.60;9.30;;;;;;;16.98;68.83;97440.25;4902995;28;20254;-80
2023/05/09 00:45:38;;;;;;;8.60;7.80;;;;;;;17.03;68.90;97445.47;4888632;28;20257;-80
2023/05/09 00:48:03;;;;;;;8.48;7.60;;;;;;;16.97;68.73;97438.72;4927504;28;20205;-80
2023/05/09 00:50:30;;;;;;;8.35;7.55;;;;;;;16.96;68.73;97442.41;4890173;28;20278;-80
2023/05/09 00:52:55;;;;;;;8.55;7.60;;;;;;;16.87;68.59;97431.69;4890120;28;20254;-80
2023/05/09 00:55:21;;;;;;;9.27;8.27;;;;;;;16.83;68.71;97431.44;4870829;28;20289;-80
2023/05/09 00:57:46;;;;;;;9.80;8.80;;;;;;;16.87;68.52;97429.06;4883618;28;20374;-79
2023/05/09 01:00:12;;;;;;;10.65;9.02;;;;;;;16.83;68.71;97428.03;4892423;28;20245;-80
2023/05/09 01:02:43;;;;;;;8.25;7.45;;;;;;;16.79;68.54;97422.56;4904589;23;20328;-80
2023/05/09 01:05:10;;;;;;;9.07;8.18;;;;;;;16.76;68.70;97417.03;4886727;28;20168;-81
2023/05/09 01:08:02;;;;;;;9.32;8.30;;;;;;;16.94;68.53;97418.22;4875102;28;20276;-80
2023/05/09 01:10:39;;;;;;;9.30;8.40;;;;;;;16.90;68.51;97404.84;4885302;28;20722;-81
2023/05/09 01:13:11;;;;;;;10.10;8.77;;;;;;;16.91;68.41;97411.66;4876244;28;20274;-82
2023/05/09 01:15:48;;;;;;;10.20;9.07;;;;;;;17.02;68.01;97421.03;4894453;28;20377;-80
2023/05/09 01:18:20;;;;;;;9.85;8.85;;;;;;;16.86;68.38;97411.72;4909594;28;20211;-80
2023/05/09 01:20:50;;;;;;;8.98;8.07;;;;;;;16.79;68.73;97411.22;4885544;28;20279;-80
2023/05/09 01:23:22;;;;;;;9.00;8.10;;;;;;;16.75;68.73;97411.00;4888809;28;20751;-80
2023/05/09 01:26:09;;;;;;;9.32;8.25;;;;;;;16.76;68.70;97409.16;4923192;28;20214;-81
2023/05/09 01:28:40;;;;;;;9.57;7.80;;;;;;;16.70;68.76;97397.13;4913112;28;20201;-80
2023/05/09 01:31:07;;;;;;;8.55;7.63;;;;;;;16.59;68.79;97391.97;4893899;28;20154;-80
2023/05/09 01:33:35;;;;;;;8.38;7.57;;;;;;;16.63;68.94;97394.84;4913031;28;20589;-81
2023/05/09 01:36:04;;;;;;;9.20;8.23;;;;;;;16.59;68.84;97394.59;4910388;28;20204;-81
2023/05/09 01:38:30;;;;;;;11.48;9.68;;;;;;;16.61;68.57;97395.09;4874548;28;20195;-81
2023/05/09 01:40:57;;;;;;;10.77;9.35;;;;;;;16.65;68.67;97398.75;4892593;28;20198;-80
2023/05/09 01:43:24;;;;;;;11.45;9.98;;;;;;;16.72;68.56;97400.25;4893348;28;20363;-80
2023/05/09 01:45:50;;;;;;;11.38;9.20;;;;;;;16.69;68.79;97403.44;4877821;28;20264;-81
2023/05/09 01:48:16;;;;;;;10.35;9.23;;;;;;;16.70;68.73;97407.66;4879236;28;20688;-81
2023/05/09 01:50:43;;;;;;;10.25;8.43;;;;;;;16.72;68.96;97397.63;4929178;28;20197;-81
2023/05/09 01:53:10;;;;;;;9.45;8.43;;;;;;;16.72;69.01;97401.03;4888715;28;20684;-80
2023/05/09 01:55:36;;;;;;;8.20;7.40;;;;;;;16.73;69.28;97396.59;4865750;28;20313;-81
2023/05/09 01:58:04;;;;;;;7.88;7.07;;;;;;;16.74;69.16;97403.41;4894340;28;20299;-81
2023/05/09 02:00:30;;;;;;;8.20;7.40;;;;;;;16.71;69.01;97398.69;4897678;28;20253;-80
2023/05/09 02:02:56;;;;;;;9.45;7.97;;;;;;;16.71;69.16;97403.94;4879348;28;20625;-81
2023/05/09 02:05:26;;;;;;;9.05;8.15;;;;;;;16.74;69.20;97390.25;4890744;28;20261;-81
2023/05/09 02:07:52;;;;;;;10.55;8.30;;;;;;;16.73;69.24;97399.22;4891801;28;20256;-81
2023/05/09 02:10:19;;;;;;;8.23;7.43;;;;;;;16.74;69.26;97392.88;4900959;28;20504;-81
2023/05/09 02:12:44;;;;;;;8.00;7.00;;;;;;;16.73;69.07;97386.06;4870394;28;20258;-81
2023/05/09 02:15:10;;;;;;;8.05;7.15;;;;;;;16.68;69.01;97381.63;4879408;28;20285;-80
2023/05/09 02:17:35;;;;;;;8.32;7.47;;;;;;;16.68;68.48;97386.91;4874265;28;20649;-81
2023/05/09 02:20:01;;;;;;;7.35;6.65;;;;;;;16.66;69.31;97378.50;4891457;28;20238;-81
2023/05/09 02:22:26;;;;;;;7.63;6.93;;;;;;;16.69;68.79;97387.66;4857230;28;20303;-81
2023/05/09 02:24:52;;;;;;;8.63;7.72;;;;;;;16.66;69.22;97389.03;4876988;28;20210;-81
2023/05/09 02:27:17;;;;;;;7.38;6.68;;;;;;;16.67;69.18;97390.56;4889548;28;20239;-80
2023/05/09 02:29:47;;;;;;;7.80;7.00;;;;;;;16.74;69.10;97390.25;4881336;28;20707;-80
2023/05/09 02:32:24;;;;;;;8.25;7.30;;;;;;;16.79;69.19;97384.94;4875427;28;20270;-81
2023/05/09 02:34:51;;;;;;;8.65;7.75;;;;;;;16.72;69.60;97387.13;4892174;28;20408;-79
2023/05/09 02:37:17;;;;;;;8.18;7.38;;;;;;;16.70;69.56;97376.88;4892233;28;20636;-79
2023/05/09 02:39:43;;;;;;;8.52;7.57;;;;;;;16.75;69.58;97383.94;4874421;28;20202;-79
2023/05/09 02:42:10;;;;;;;10.98;8.82;;;;;;;16.84;69.73;97382.28;4875627;28;20637;-79
2023/05/09 02:44:35;;;;;;;9.65;8.18;;;;;;;16.82;69.60;97384.38;4868456;28;20661;-79
2023/05/09 02:47:02;;;;;;;9.00;8.07;;;;;;;16.85;69.78;97383.88;4875027;28;20270;-81
2023/05/09 02:49:27;;;;;;;9.30;8.27;;;;;;;16.83;69.33;97381.47;4890502;28;20255;-81
2023/05/09 02:51:53;;;;;;;9.07;8.18;;;;;;;16.81;69.47;97369.66;4874499;28;20286;-81
2023/05/09 02:54:18;;;;;;;12.70;9.35;;;;;;;16.81;69.73;97367.03;4888744;28;20324;-79
2023/05/09 02:56:44;;;;;;;10.27;8.68;;;;;;;16.79;70.02;97358.63;4900721;28;20221;-79
2023/05/09 02:59:09;;;;;;;11.48;9.10;;;;;;;16.78;69.72;97367.59;4907018;28;20307;-79
2023/05/09 03:01:34;;;;;;;12.45;9.60;;;;;;;16.73;69.51;97357.91;4897500;28;20734;-80
2023/05/09 03:04:00;;;;;;;14.15;10.35;;;;;;;16.78;69.25;97359.72;4873476;28;20219;-79
2023/05/09 03:06:25;;;;;;;17.23;12.00;;;;;;;16.69;69.50;97338.53;4891006;28;20212;-79
2023/05/09 03:08:51;;;;;;;13.75;11.57;;;;;;;16.70;69.52;97344.56;4885062;28;20656;-79
2023/05/09 03:11:16;;;;;;;10.90;9.70;;;;;;;16.67;69.56;97335.38;4860169;28;20637;-80
2023/05/09 03:13:41;;;;;;;11.23;10.02;;;;;;;16.67;69.23;97338.78;4890274;28;20206;-79
2023/05/09 03:16:07;;;;;;;11.45;9.90;;;;;;;16.64;69.31;97336.72;4876393;28;20201;-79
2023/05/09 03:18:32;;;;;;;11.27;9.55;;;;;;;16.57;69.25;97327.59;4869241;28;20676;-80
2023/05/09 03:20:57;;;;;;;10.38;9.20;;;;;;;16.56;69.07;97336.56;4891471;28;20334;-79
2023/05/09 03:23:23;;;;;;;12.82;10.07;;;;;;;16.54;69.23;97336.06;4890750;28;20206;-79
2023/05/09 03:25:48;;;;;;;11.55;9.75;;;;;;;16.54;69.21;97342.09;4920461;28;20165;-80
2023/05/09 03:28:13;;;;;;;12.35;10.15;;;;;;;16.53;69.08;97337.09;4867249;28;20284;-79
2023/05/09 03:30:39;;;;;;;11.02;9.25;;;;;;;16.52;69.27;97332.91;4876868;28;20372;-80
2023/05/09 03:33:05;;;;;;;10.02;8.82;;;;;;;16.50;69.26;97335.03;4886078;28;20334;-79
2023/05/09 03:35:30;;;;;;;13.75;9.80;;;;;;;16.54;68.83;97331.56;4892838;28;20238;-79
2023/05/09 03:37:56;;;;;;;15.02;10.35;;;;;;;16.65;68.44;97337.50;4863821;28;20152;-79
2023/05/09 03:40:21;;;;;;;14.77;10.90;;;;;;;16.60;68.43;97319.91;4865620;28;20207;-79
2023/05/09 03:42:47;;;;;;;14.18;11.68;;;;;;;16.63;68.50;97326.47;4888287;28;20277;-79
2023/05/09 03:45:12;;;;;;;14.20;11.77;;;;;;;16.63;68.88;97332.50;4883303;28;20277;-79
2023/05/09 03:47:37;;;;;;;15.02;11.25;;;;;;;16.58;69.31;97329.16;4891175;28;20708;-80
2023/05/09 03:50:03;;;;;;;15.25;11.65;;;;;;;16.59;69.47;97334.16;4874953;28;20251;-79
2023/05/09 03:52:28;;;;;;;12.38;10.02;;;;;;;16.64;69.10;97335.94;4883309;28;20209;-80
2023/05/09 03:54:54;;;;;;;14.05;10.18;;;;;;;16.65;68.93;97340.91;4908314;28;20259;-79
2023/05/09 03:57:19;;;;;;;12.40;9.82;;;;;;;16.65;69.02;97338.28;4874466;28;20985;-78
2023/05/09 03:59:44;;;;;;;13.63;9.27;;;;;;;16.66;69.05;97345.09;4905155;28;20761;-79
2023/05/09 04:02:10;;;;;;;12.07;9.90;;;;;;;16.64;69.04;97336.72;4873866;28;20288;-79
2023/05/09 04:04:35;;;;;;;11.55;9.77;;;;;;;16.66;69.50;97347.72;4873852;28;20096;-80
2023/05/09 04:07:01;;;;;;;10.80;9.60;;;;;;;16.64;69.49;97341.97;4876576;28;20242;-81
2023/05/09 04:09:27;;;;;;;9.85;8.85;;;;;;;16.64;69.56;97344.59;4855031;28;20216;-79
2023/05/09 04:11:53;;;;;;;14.15;11.38;;;;;;;16.68;69.60;97344.84;4868587;28;20195;-79
2023/05/09 04:14:18;;;;;;;15.02;11.82;;;;;;;16.72;69.76;97342.41;4878149;28;20713;-79
2023/05/09 04:16:43;;;;;;;18.85;13.60;;;;;;;16.70;70.03;97337.44;4879743;28;20634;-79
2023/05/09 04:19:09;;;;;;;17.52;12.60;;;;;;;16.79;69.89;97338.41;4880850;28;20164;-79
2023/05/09 04:21:34;;;;;;;13.95;10.93;;;;;;;16.85;70.00;97336.53;4869149;28;20203;-79
2023/05/09 04:24:00;;;;;;;22.88;15.40;;;;;;;16.90;70.11;97336.47;4891958;28;20754;-79
2023/05/09 04:26:25;;;;;;;18.00;13.40;;;;;;;16.93;69.71;97337.72;4907911;28;20199;-79
2023/05/09 04:28:51;;;;;;;18.40;13.70;;;;;;;16.99;70.22;97340.03;4872838;28;20208;-80
2023/05/09 04:31:18;;;;;;;17.27;12.23;;;;;;;17.06;69.96;97338.91;4891004;28;20278;-79
2023/05/09 04:33:43;;;;;;;19.45;14.05;;;;;;;17.10;70.00;97334.66;4856173;28;20194;-79
2023/05/09 04:36:09;;;;;;;19.08;14.23;;;;;;;17.07;69.85;97324.69;4864622;28;20116;-80
2023/05/09 04:38:34;;;;;;;22.67;15.35;;;;;;;17.18;70.46;97339.28;4874486;28;20317;-79
2023/05/09 04:41:00;;;;;;;17.02;12.85;;;;;;;17.25;70.26;97333.66;4894135;28;20196;-81
2023/05/09 04:43:26;;;;;;;16.00;12.23;;;;;;;17.29;70.00;97326.75;4892041;28;20195;-80
2023/05/09 04:45:52;;;;;;;18.58;13.05;;;;;;;17.36;70.48;97320.09;4874733;28;20133;-81
2023/05/09 04:48:18;;;;;;;17.10;12.82;;;;;;;17.41;70.58;97317.41;4874066;28;20176;-79
2023/05/09 04:51:11;;;;;;;16.00;11.65;;;;;;;17.67;70.46;97314.38;4875334;28;20143;-79
2023/05/09 04:53:36;;;;;;;15.38;11.30;;;;;;;17.58;70.40;97326.63;4899620;28;20200;-80
2023/05/09 04:56:02;;;;;;;23.63;15.20;;;;;;;17.61;70.44;97320.78;4887880;28;20242;-79
2023/05/09 04:58:27;;;;;;;19.45;14.13;;;;;;;17.63;70.33;97313.38;4888797;28;20156;-79
2023/05/09 05:00:53;;;;;;;19.05;13.63;;;;;;;17.73;70.53;97313.22;4880551;28;20618;-81
2023/05/09 05:03:18;;;;;;;18.63;14.05;;;;;;;17.77;70.37;97319.50;4887840;28;20320;-79
2023/05/09 05:05:44;;;;;;;23.83;14.43;;;;;;;17.77;70.33;97301.06;4873412;28;20283;-80
2023/05/09 05:08:09;;;;;;;19.13;14.98;;;;;;;17.88;70.43;97314.09;4888606;28;20115;-79
2023/05/09 05:10:35;;;;;;;18.13;13.88;;;;;;;17.90;70.17;97314.59;4873563;28;20255;-80
2023/05/09 05:13:00;;;;;;;21.33;14.73;;;;;;;17.94;70.28;97312.94;4873347;28;20247;-80
2023/05/09 05:15:26;;;;;;;20.05;15.05;;;;;;;17.96;70.40;97305.53;4902925;28;20713;-79
2023/05/09 05:17:51;;;;;;;20.77;14.55;;;;;;;17.89;70.58;97287.47;4888332;28;20640;-80
2023/05/09 05:20:17;;;;;;;26.00;15.13;;;;;;;17.99;70.76;97289.13;4891733;28;20648;-80
2023/05/09 05:22:42;;;;;;;17.00;12.85;;;;;;;18.07;70.52;97296.38;4891602;28;20657;-79
2023/05/09 05:25:09;;;;;;;18.85;14.00;;;;;;;18.10;70.55;97295.81;4909484;28;20302;-80
2023/05/09 05:27:34;;;;;;;18.20;13.43;;;;;;;18.20;70.30;97294.06;4872960;28;20207;-80
2023/05/09 05:30:00;;;;;;;18.88;13.32;;;;;;;18.15;70.18;97290.44;4885813;28;20272;-79
2023/05/09 05:32:25;;;;;;;17.70;14.05;;;;;;;18.20;70.12;97294.88;4909190;28;20191;-79
2023/05/09 05:34:51;;;;;;;15.30;12.10;;;;;;;18.15;70.37;97295.72;4870873;28;20666;-79
2023/05/09 05:37:16;;;;;;;16.77;13.05;;;;;;;18.17;70.26;97299.94;4893901;28;20227;-81
2023/05/09 05:39:41;;;;;;;17.38;13.02;;;;;;;18.21;70.40;97299.03;4893343;28;20081;-81
2023/05/09 05:42:07;;;;;;;19.70;13.35;;;;;;;18.25;70.22;97294.78;4910111;28;20255;-80
2023/05/09 05:44:32;;;;;;;16.95;13.98;;;;;;;18.27;70.01;97289.22;4908415;28;20206;-79
2023/05/09 05:46:57;;;;;;;17.02;12.55;;;;;;;18.30;69.96;97296.50;4912854;28;20664;-79
2023/05/09 05:49:23;;;;;;;15.63;11.60;;;;;;;18.28;70.06;97301.31;4865460;28;20454;-80
2023/05/09 05:51:49;;;;;;;16.77;12.98;;;;;;;18.25;70.05;97301.88;4866294;28;20194;-79
2023/05/09 05:54:15;;;;;;;19.33;13.50;;;;;;;18.25;70.25;97307.16;4876336;28;20251;-79
2023/05/09 05:56:40;;;;;;;19.83;13.00;;;;;;;18.20;70.31;97299.31;4877342;28;20652;-79
2023/05/09 05:59:05;;;;;;;20.35;13.82;;;;;;;18.17;70.43;97289.38;4893503;28;20195;-80
2023/05/09 06:01:31;;;;;;;20.05;14.25;;;;;;;18.31;70.31;97290.97;4876299;28;20207;-80
2023/05/09 06:03:56;;;;;;;18.77;13.07;;;;;;;18.28;70.19;97275.75;4895010;28;20223;-80
2023/05/09 06:06:22;;;;;;;18.65;14.15;;;;;;;18.31;70.23;97279.63;4893020;28;20622;-80
2023/05/09 06:08:50;;;;;;;19.17;13.32;;;;;;;18.33;70.15;97277.50;4861832;28;20180;-80
2023/05/09 06:11:16;;;;;;;20.60;14.63;;;;;;;18.34;70.13;97277.19;4868899;28;20180;-80
2023/05/09 06:13:42;;;;;;;22.83;14.55;;;;;;;18.41;69.95;97282.09;4866823;28;20210;-79
2023/05/09 06:16:08;;;;;;;20.80;13.18;;;;;;;18.43;70.30;97276.53;4885066;28;20253;-79
2023/05/09 06:18:36;;;;;;;26.10;15.38;;;;;;;18.46;69.97;97279.34;4875603;28;20788;-80
2023/05/09 06:21:02;;;;;;;23.38;14.55;;;;;;;18.38;70.06;97274.75;4875803;28;20198;-80
2023/05/09 06:23:27;;;;;;;24.50;15.52;;;;;;;18.47;70.19;97275.66;4859812;28;20191;-80
2023/05/09 06:25:53;;;;;;;26.20;16.17;;;;;;;18.47;69.84;97273.03;4905245;28;20239;-81
2023/05/09 06:28:18;;;;;;;22.05;15.13;;;;;;;18.44;70.13;97263.06;4877693;28;20168;-81
2023/05/09 06:30:43;;;;;;;25.88;16.00;;;;;;;18.45;70.11;97258.56;4892230;28;20239;-79
2023/05/09 06:33:09;;;;;;;23.27;16.50;;;;;;;18.51;70.29;97262.66;4897618;28;20274;-79
2023/05/09 06:35:34;;;;;;;24.00;16.08;;;;;;;18.64;69.63;97255.81;4862690;28;20574;-81
2023/05/09 06:38:00;;;;;;;24.38;15.80;;;;;;;18.69;69.67;97260.97;4893916;28;20202;-80
2023/05/09 06:40:25;;;;;;;23.65;16.63;;;;;;;18.64;69.84;97255.81;4893532;28;20291;-80
2023/05/09 06:42:50;;;;;;;20.65;14.90;;;;;;;18.72;69.66;97255.13;4863445;28;20168;-80
2023/05/09 06:45:16;;;;;;;20.60;13.85;;;;;;;18.77;69.96;97248.97;4890569;28;20712;-82
2023/05/09 06:47:41;;;;;;;22.83;16.15;;;;;;;18.86;69.64;97249.84;4893033;28;20300;-81
2023/05/09 06:50:07;;;;;;;19.67;13.60;;;;;;;18.88;69.40;97237.94;4890652;28;20205;-80
2023/05/09 06:52:32;;;;;;;19.85;14.93;;;;;;;18.95;69.29;97237.50;4876112;28;20187;-80
2023/05/09 06:54:58;;;;;;;19.13;12.55;;;;;;;19.01;69.52;97246.13;4877362;28;20651;-79
2023/05/09 06:57:23;;;;;;;19.50;14.20;;;;;;;19.07;69.37;97231.72;4874786;28;20192;-79
2023/05/09 06:59:49;;;;;;;17.55;12.82;;;;;;;19.16;69.19;97222.03;4875673;28;20189;-79
2023/05/09 07:02:15;;;;;;;19.50;14.25;;;;;;;19.31;69.04;97226.16;4900427;28;20626;-79
2023/05/09 07:04:40;;;;;;;22.25;15.68;;;;;;;19.39;68.62;97228.09;4880575;28;20567;-81
2023/05/09 07:07:06;;;;;;;18.65;13.85;;;;;;;19.42;68.37;97221.44;4897512;28;20198;-80
2023/05/09 07:09:31;;;;;;;16.95;13.95;;;;;;;19.39;68.40;97212.25;4860558;28;20685;-79
2023/05/09 07:11:58;;;;;;;17.08;13.55;;;;;;;19.51;68.39;97216.97;4893733;28;20223;-81
2023/05/09 07:14:24;;;;;;;18.98;14.13;;;;;;;19.54;68.34;97219.03;4882275;28;20239;-80
2023/05/09 07:16:49;;;;;;;16.92;13.63;;;;;;;19.74;68.23;97219.59;4878101;28;20630;-80
2023/05/09 07:19:14;;;;;;;14.55;12.20;;;;;;;19.87;67.54;97212.72;4859860;28;20681;-80
2023/05/09 07:21:40;;;;;;;14.23;11.77;;;;;;;20.09;67.22;97206.59;4876123;28;20293;-80
2023/05/09 07:24:05;;;;;;;14.70;11.23;;;;;;;20.27;66.37;97216.16;4907891;28;20191;-81
2023/05/09 07:26:31;;;;;;;13.82;11.23;;;;;;;20.32;64.95;97210.72;4905379;28;20235;-81
2023/05/09 07:28:56;;;;;;;13.32;10.45;;;;;;;20.19;65.77;97196.50;4892802;28;20262;-80
2023/05/09 07:31:23;;;;;;;11.80;10.60;;;;;;;20.32;65.58;97194.84;4882427;28;20170;-80
2023/05/09 07:33:48;;;;;;;12.20;9.75;;;;;;;20.47;65.73;97200.78;4896699;28;20266;-81
2023/05/09 07:36:15;;;;;;;11.18;9.98;;;;;;;20.52;65.85;97203.28;4894316;28;20218;-80
2023/05/09 07:38:41;;;;;;;11.70;8.90;;;;;;;20.62;65.76;97196.94;4887941;28;20174;-81
2023/05/09 07:41:06;;;;;;;11.25;10.05;;;;;;;20.77;63.44;97201.81;4893765;28;20247;-82
2023/05/09 07:43:32;;;;;;;9.60;8.68;;;;;;;20.70;64.59;97196.97;4875327;28;20193;-81
2023/05/09 07:45:57;;;;;;;10.82;8.00;;;;;;;20.39;64.04;97202.31;4878607;28;20307;-81
2023/05/09 07:48:22;;;;;;;8.70;7.53;;;;;;;20.61;63.69;97201.44;4893963;28;20278;-80
2023/05/09 07:50:51;;;;;;;7.18;6.47;;;;;;;20.66;64.09;97198.66;4880982;28;20606;-81
2023/05/09 07:53:16;;;;;;;8.57;7.22;;;;;;;20.76;63.42;97194.94;4894206;28;20192;-80
2023/05/09 07:55:43;;;;;;;9.68;8.68;;;;;;;20.80;62.96;97195.88;4892115;28;20266;-80
2023/05/09 07:58:09;;;;;;;10.27;8.27;;;;;;;20.67;63.96;97189.66;4909391;28;20818;-80
2023/05/09 08:00:34;;;;;;;9.80;8.65;;;;;;;20.59;63.50;97182.44;4879045;28;20214;-80
2023/05/09 08:03:00;;;;;;;8.15;7.35;;;;;;;20.59;63.57;97183.22;4867132;28;20520;-81
2023/05/09 08:05:25;;;;;;;9.55;8.23;;;;;;;20.36;64.50;97179.94;4874774;28;20278;-81
2023/05/09 08:07:51;;;;;;;9.90;7.43;;;;;;;20.31;63.03;97174.78;4906429;28;20270;-80
2023/05/09 08:10:16;;;;;;;8.77;7.85;;;;;;;20.29;63.03;97173.50;4874871;28;20199;-80
2023/05/09 08:12:42;;;;;;;9.13;7.20;;;;;;;20.13;63.60;97166.00;4856382;28;20280;-79
2023/05/09 08:15:07;;;;;;;8.10;7.00;;;;;;;20.09;64.00;97159.78;4903248;28;20255;-80
2023/05/09 08:17:33;;;;;;;7.68;6.93;;;;;;;20.06;63.91;97159.63;4878610;28;20647;-79
2023/05/09 08:19:58;;;;;;;8.65;7.75;;;;;;;20.01;64.16;97153.41;4887137;28;20642;-80
2023/05/09 08:22:24;;;;;;;8.32;7.53;;;;;;;20.04;64.59;97148.59;4871504;28;20263;-79
2023/05/09 08:24:49;;;;;;;7.72;6.95;;;;;;;20.23;65.02;97154.38;4893336;28;20201;-79
2023/05/09 08:27:15;;;;;;;8.18;7.38;;;;;;;20.37;64.48;97149.75;4874438;28;20305;-79
2023/05/09 08:29:40;;;;;;;7.35;6.65;;;;;;;20.37;64.48;97143.66;4893432;28;20539;-79
2023/05/09 08:32:06;;;;;;;8.45;7.63;;;;;;;20.46;63.90;97144.47;4886629;28;20288;-79
2023/05/09 08:34:33;;;;;;;7.80;7.03;;;;;;;20.50;63.72;97147.28;4901739;28;20645;-79
2023/05/09 08:37:02;;;;;;;9.00;8.10;;;;;;;20.61;63.67;97151.16;4877847;28;20207;-81
2023/05/09 08:39:28;;;;;;;9.18;8.25;;;;;;;20.46;63.12;97138.41;4895908;28;20278;-80
2023/05/09 08:41:58;;;;;;;10.07;8.68;;;;;;;20.53;63.37;97136.88;4862907;28;20347;-80
2023/05/09 08:44:24;;;;;;;8.30;7.50;;;;;;;20.48;63.65;97125.66;4905725;28;20301;-79
2023/05/09 08:46:51;;;;;;;7.80;7.00;;;;;;;20.60;63.42;97128.47;4882329;28;20642;-79
2023/05/09 08:49:19;;;;;;;11.23;8.38;;;;;;;20.77;64.54;97125.84;4921025;28;20172;-80
2023/05/09 08:51:46;;;;;;;9.57;8.32;;;;;;;20.88;64.23;97125.53;4893083;28;20360;-80
2023/05/09 08:54:12;;;;;;;7.82;7.07;;;;;;;20.99;63.18;97116.19;4903064;28;20669;-80
2023/05/09 08:56:37;;;;;;;9.80;7.90;;;;;;;20.83;63.83;97112.47;4894047;28;20200;-79
2023/05/09 08:59:04;;;;;;;9.50;7.60;;;;;;;20.88;64.17;97112.31;4892774;28;20218;-80
2023/05/09 09:01:32;;;;;;;8.32;7.53;;;;;;;20.91;63.77;97104.50;4879993;28;20178;-79
2023/05/09 09:03:57;;;;;;;7.72;6.93;;;;;;;20.81;64.00;97096.13;4880284;28;20251;-80
2023/05/09 09:06:24;;;;;;;8.77;7.88;;;;;;;20.92;63.29;97110.56;4897593;28;20697;-80
2023/05/09 09:08:51;;;;;;;7.60;6.90;;;;;;;21.08;62.07;97103.72;4929016;28;20266;-80
2023/05/09 09:11:17;;;;;;;8.23;7.53;;;;;;;21.23;63.73;97102.44;4898110;28;20373;-80
2023/05/09 09:13:43;;;;;;;9.40;7.97;;;;;;;21.31;62.19;97098.97;4895765;28;20104;-80
2023/05/09 09:16:11;;;;;;;8.40;7.60;;;;;;;21.40;61.65;97095.53;4912580;28;20875;-82
2023/05/09 09:18:36;;;;;;;7.57;6.68;;;;;;;21.66;59.69;97095.44;4880359;28;20708;-81
2023/05/09 09:21:05;;;;;;;7.15;6.28;;;;;;;21.83;59.10;97095.41;4897202;28;20369;-80
2023/05/09 09:23:31;;;;;;;5.82;5.32;;;;;;;21.64;59.01;97082.56;4898944;28;20374;-83
2023/05/09 09:25:58;;;;;;;6.05;5.45;;;;;;;21.61;59.48;97079.72;4919802;28;20286;-79
2023/05/09 09:28:23;;;;;;;6.15;5.55;;;;;;;21.69;58.57;97085.03;4910828;28;20806;-81
2023/05/09 09:30:49;;;;;;;6.13;5.57;;;;;;;21.70;57.43;97083.13;4896913;28;20348;-79
2023/05/09 09:33:21;;;;;;;7.53;5.38;;;;;;;21.77;59.12;97080.75;4884665;28;20298;-81
2023/05/09 09:35:51;;;;;;;7.22;5.93;;;;;;;21.61;59.99;97069.94;4896276;28;20104;-80
2023/05/09 09:38:18;;;;;;;6.30;5.70;;;;;;;21.64;59.45;97065.84;4902260;28;20216;-80
2023/05/09 09:40:57;;;;;;;6.43;5.70;;;;;;;21.66;57.15;97055.72;4877596;28;20151;-82
2023/05/09 09:43:29;;;;;;;6.13;5.32;;;;;;;21.78;57.13;97058.47;4909557;28;20156;-80
2023/05/09 09:45:55;;;;;;;5.25;4.75;;;;;;;21.84;57.34;97053.75;4901463;28;20285;-79
2023/05/09 09:48:32;;;;;;;6.10;5.47;;;;;;;21.92;58.42;97036.25;4884812;28;20203;-80
2023/05/09 09:51:02;;;;;;;7.43;5.47;;;;;;;22.05;57.06;97048.47;4863662;28;20240;-79
2023/05/09 09:53:30;;;;;;;6.57;5.28;;;;;;;21.98;58.35;97032.31;4907811;28;20556;-81
2023/05/09 09:55:56;;;;;;;5.82;5.20;;;;;;;21.86;57.81;97041.72;4917120;28;20645;-80
2023/05/09 09:58:23;;;;;;;5.60;5.03;;;;;;;21.83;56.59;97036.28;4900503;28;20130;-80
2023/05/09 10:01:06;;;;;;;4.97;4.57;;;;;;;21.97;57.33;97030.75;4910076;28;20687;-80
2023/05/09 10:03:39;;;;;;;5.65;5.05;;;;;;;21.94;57.32;97034.06;4908968;28;20207;-80
2023/05/09 10:06:11;;;;;;;5.25;4.75;;;;;;;21.78;58.37;97025.88;4890188;28;20200;-80
2023/05/09 10:08:38;;;;;;;5.55;5.00;;;;;;;21.57;57.10;97031.13;4888729;28;20194;-80
2023/05/09 10:11:03;;;;;;;5.15;4.07;;;;;;;21.75;56.71;97026.53;4895121;28;20193;-81
2023/05/09 10:13:28;;;;;;;4.80;4.40;;;;;;;21.79;57.53;97020.25;4894493;28;20323;-80
2023/05/09 10:15:56;;;;;;;5.05;4.65;;;;;;;21.80;55.60;97016.53;4904269;28;20285;-81
2023/05/09 10:18:26;;;;;;;4.60;4.18;;;;;;;21.96;56.90;97008.78;4895692;28;20606;-82
2023/05/09 10:20:52;;;;;;;4.30;4.00;;;;;;;22.00;55.29;97004.41;4880585;28;20275;-79
2023/05/09 10:23:18;;;;;;;4.32;3.92;;;;;;;22.16;54.79;96999.28;4909320;28;20255;-80
2023/05/09 10:25:47;;;;;;;5.13;4.63;;;;;;;22.08;56.91;96997.47;4895770;28;20206;-80
2023/05/09 10:28:17;;;;;;;4.47;4.18;;;;;;;22.28;55.24;97003.09;4877567;28;20207;-80
2023/05/09 10:31:05;;;;;;;4.07;3.75;;;;;;;22.35;55.71;96995.41;4909755;28;20203;-79
2023/05/09 10:33:35;;;;;;;4.90;4.57;;;;;;;22.15;57.74;96987.09;4876686;28;20286;-80
2023/05/09 10:36:02;;;;;;;4.75;4.35;;;;;;;22.18;56.42;96989.13;4877907;28;20653;-81
2023/05/09 10:38:27;;;;;;;4.68;4.28;;;;;;;21.98;56.69;96984.59;4899744;28;20195;-79
2023/05/09 10:40:53;;;;;;;5.07;4.65;;;;;;;22.10;55.48;96976.69;4909165;28;20227;-79
2023/05/09 10:43:20;;;;;;;5.25;4.75;;;;;;;22.07;56.37;96978.13;4876487;28;20376;-81
2023/05/09 10:45:46;;;;;;;4.45;4.07;;;;;;;22.14;57.34;96980.28;4902496;28;20821;-80
2023/05/09 10:48:11;;;;;;;3.97;3.67;;;;;;;22.10;56.81;96976.69;4895107;28;20270;-80
2023/05/09 10:50:39;;;;;;;4.72;4.35;;;;;;;22.21;55.90;96966.50;4876023;28;20192;-80
2023/05/09 10:53:06;;;;;;;4.65;4.13;;;;;;;22.29;56.24;96962.22;4902508;28;20203;-79
2023/05/09 10:55:41;;;;;;;4.20;3.90;;;;;;;22.57;54.84;96967.75;4911136;28;20191;-80
2023/05/09 10:58:25;;;;;;;4.95;4.00;;;;;;;22.73;53.29;96955.38;4897938;28;20372;-79
2023/05/09 11:00:52;;;;;;;4.67;4.27;;;;;;;22.75;53.83;96949.75;4914146;28;20119;-81
2023/05/09 11:03:18;;;;;;;4.40;3.97;;;;;;;23.05;53.06;96942.38;4893409;28;20651;-79
2023/05/09 11:05:45;;;;;;;4.15;3.65;;;;;;;23.22;51.49;96927.34;4864420;28;20201;-79
2023/05/09 11:08:17;;;;;;;3.75;3.53;;;;;;;23.40;50.21;96922.59;4877846;28;20329;-79
2023/05/09 11:10:42;;;;;;;3.97;3.67;;;;;;;23.32;50.58;96917.06;4909732;28;20275;-79
2023/05/09 11:13:08;;;;;;;4.15;3.50;;;;;;;23.45;49.93;96923.13;4857311;28;20192;-79
2023/05/09 11:15:33;;;;;;;3.75;3.45;;;;;;;23.51;49.96;96915.69;4891806;28;20259;-78
2023/05/09 11:18:09;;;;;;;4.25;3.90;;;;;;;23.64;50.26;96905.81;4868319;28;20645;-78
2023/05/09 11:20:35;;;;;;;3.95;3.63;;;;;;;23.59;51.13;96908.72;4901371;28;20201;-79
2023/05/09 11:23:03;;;;;;;3.00;2.80;;;;;;;23.72;51.63;96902.28;4890552;28;20253;-78
2023/05/09 11:25:29;;;;;;;3.83;3.13;;;;;;;23.70;51.06;96899.94;4890017;28;20268;-81